Time;durP1;ratioP1;P1;durP2;ratioP2;P2;SDS_P1;SDS_P2;PMS_P1;PMS_P2;Temp;Humidity;BMP_temperature;BMP_pressure;BME280_temperature;BME280_humidity;BME280_pressure;Samples;Min_cycle;Max_cycle;Signal;HPM_P1;HPM_P2
2024/03/28 00:02:01;;;;;;;9.77;8.87;;;11.70;99.90;;;;;;5032143;28;20526;-50
2024/03/28 00:04:27;;;;;;;12.93;9.07;;;11.70;99.90;;;;;;5016635;28;20458;-53
2024/03/28 00:06:53;;;;;;;9.97;8.90;;;11.70;99.90;;;;;;5016673;28;20897;-54
2024/03/28 00:09:19;;;;;;;9.20;8.40;;;11.60;99.90;;;;;;5016722;28;20464;-54
2024/03/28 00:11:44;;;;;;;11.23;8.30;;;11.60;99.90;;;;;;5028741;28;20176;-52
2024/03/28 00:14:10;;;;;;;9.33;8.43;;;11.60;99.90;;;;;;5034382;28;20418;-55
2024/03/28 00:16:36;;;;;;;9.73;8.73;;;11.60;99.90;;;;;;5016424;28;20187;-57
2024/03/28 00:19:01;;;;;;;13.17;8.80;;;11.60;99.90;;;;;;5031098;28;20210;-57
2024/03/28 00:21:27;;;;;;;14.00;9.30;;;11.60;99.90;;;;;;5016211;28;20237;-56
2024/03/28 00:23:52;;;;;;;9.33;8.43;;;11.60;99.90;;;;;;5016551;28;20203;-57
2024/03/28 00:26:18;;;;;;;9.27;8.30;;;11.50;99.90;;;;;;5033766;28;20545;-53
2024/03/28 00:28:43;;;;;;;13.00;9.80;;;11.50;99.90;;;;;;5033863;28;20207;-51
2024/03/28 00:31:10;;;;;;;11.80;8.77;;;11.40;99.90;;;;;;5034057;28;20283;-56
2024/03/28 00:33:35;;;;;;;10.13;9.23;;;11.50;99.90;;;;;;5015543;28;20192;-56
2024/03/28 00:36:01;;;;;;;8.90;8.10;;;11.50;99.90;;;;;;5033101;28;20433;-56
2024/03/28 00:38:27;;;;;;;10.77;7.77;;;11.40;99.90;;;;;;5033481;28;20205;-55
2024/03/28 00:40:54;;;;;;;11.10;8.30;;;11.40;99.90;;;;;;5016708;28;20264;-54
2024/03/28 00:43:20;;;;;;;13.20;8.67;;;11.30;99.90;;;;;;5033287;28;20631;-56
2024/03/28 00:45:46;;;;;;;13.80;8.83;;;11.40;99.90;;;;;;5033419;28;20419;-57
2024/03/28 00:48:12;;;;;;;12.03;9.00;;;11.40;99.90;;;;;;5033437;28;20441;-58
2024/03/28 00:50:38;;;;;;;8.97;7.20;;;11.30;99.90;;;;;;5033819;28;20207;-56
2024/03/28 00:53:04;;;;;;;8.83;7.77;;;11.30;99.90;;;;;;5029487;28;20449;-57
2024/03/28 00:55:30;;;;;;;9.13;8.23;;;11.30;99.90;;;;;;5033657;28;20237;-57
2024/03/28 00:57:56;;;;;;;9.73;8.73;;;11.30;99.90;;;;;;5030734;28;20434;-58
2024/03/28 01:00:22;;;;;;;9.17;8.27;;;11.20;99.90;;;;;;5032353;28;20445;-56
2024/03/28 01:02:47;;;;;;;9.43;8.53;;;11.20;99.90;;;;;;5046940;22;20227;-64
2024/03/28 01:05:14;;;;;;;8.87;8.07;;;11.30;99.90;;;;;;5031622;28;20211;-63
2024/03/28 01:07:41;;;;;;;13.03;10.53;;;11.20;99.90;;;;;;5031008;28;20232;-63
2024/03/28 01:10:07;;;;;;;9.17;8.37;;;11.20;99.90;;;;;;5031075;28;20740;-62
2024/03/28 01:12:33;;;;;;;10.33;9.30;;;11.10;99.90;;;;;;5030767;28;20511;-63
2024/03/28 01:14:58;;;;;;;10.80;8.70;;;11.10;99.90;;;;;;5031302;28;20528;-63
2024/03/28 01:17:24;;;;;;;11.50;9.10;;;11.10;99.90;;;;;;5029241;28;20236;-63
2024/03/28 01:19:51;;;;;;;14.70;9.50;;;11.10;99.90;;;;;;5031202;28;20184;-63
2024/03/28 01:22:17;;;;;;;9.20;8.30;;;11.00;99.90;;;;;;5031152;28;20208;-64
2024/03/28 01:24:43;;;;;;;9.50;8.57;;;11.00;99.90;;;;;;5030974;28;20469;-64
2024/03/28 01:27:08;;;;;;;10.30;9.40;;;11.00;99.90;;;;;;5030992;28;20935;-63
2024/03/28 01:29:34;;;;;;;10.87;9.30;;;11.00;99.90;;;;;;5030630;28;20190;-64
2024/03/28 01:32:00;;;;;;;11.87;8.97;;;10.90;99.90;;;;;;5030962;28;20214;-63
2024/03/28 01:34:29;;;;;;;10.60;8.73;;;10.90;99.90;;;;;;5028994;28;20210;-64
2024/03/28 01:36:55;;;;;;;10.20;9.20;;;10.90;99.90;;;;;;5031319;28;20971;-64
2024/03/28 01:39:20;;;;;;;9.03;8.23;;;10.90;99.90;;;;;;5030551;28;20426;-64
2024/03/28 01:41:50;;;;;;;10.83;8.07;;;10.80;99.90;;;;;;5030799;28;20422;-64
2024/03/28 01:44:16;;;;;;;9.93;8.50;;;10.80;99.90;;;;;;5030241;28;20211;-64
2024/03/28 01:46:44;;;;;;;10.97;9.13;;;10.80;99.90;;;;;;5030276;28;20441;-64
2024/03/28 01:49:11;;;;;;;13.10;9.23;;;10.80;99.90;;;;;;5029021;28;20517;-62
2024/03/28 01:51:38;;;;;;;11.80;8.60;;;10.70;99.90;;;;;;5030348;28;20430;-64
2024/03/28 01:54:06;;;;;;;10.87;9.80;;;10.70;99.90;;;;;;5030204;28;20418;-64
2024/03/28 01:56:32;;;;;;;11.40;9.47;;;10.70;99.90;;;;;;5030232;28;21058;-64
2024/03/28 01:58:58;;;;;;;13.20;9.50;;;10.70;99.90;;;;;;5031184;28;21271;-63
2024/03/28 02:01:24;;;;;;;10.33;9.43;;;10.70;99.90;;;;;;5030683;28;20426;-64
2024/03/28 02:03:49;;;;;;;16.67;10.30;;;10.60;99.90;;;;;;5030939;28;20274;-63
2024/03/28 02:06:15;;;;;;;10.77;9.53;;;10.60;99.90;;;;;;5029589;28;20191;-63
2024/03/28 02:08:40;;;;;;;11.10;9.60;;;10.60;99.90;;;;;;5030546;28;20218;-64
2024/03/28 02:11:07;;;;;;;10.90;8.87;;;10.60;99.90;;;;;;5030470;28;20650;-64
2024/03/28 02:13:32;;;;;;;12.30;9.60;;;10.60;99.90;;;;;;5029858;28;20634;-64
2024/03/28 02:15:58;;;;;;;13.23;9.90;;;10.60;99.90;;;;;;5030158;28;20422;-65
2024/03/28 02:18:23;;;;;;;12.30;9.90;;;10.50;99.90;;;;;;5029929;28;20186;-65
2024/03/28 02:20:49;;;;;;;10.60;9.50;;;10.50;99.90;;;;;;5030383;28;20241;-64
2024/03/28 02:23:15;;;;;;;12.00;10.10;;;10.50;99.90;;;;;;5028675;28;20195;-64
2024/03/28 02:25:42;;;;;;;11.37;10.27;;;10.50;99.90;;;;;;5030357;28;20191;-63
2024/03/28 02:28:08;;;;;;;13.20;9.70;;;10.50;99.90;;;;;;5030521;28;20450;-64
2024/03/28 02:30:34;;;;;;;9.93;8.93;;;10.50;99.90;;;;;;5030399;28;20461;-64
2024/03/28 02:33:00;;;;;;;15.50;11.13;;;10.50;99.90;;;;;;5030611;28;20787;-64
2024/03/28 02:35:25;;;;;;;9.97;8.93;;;10.50;99.90;;;;;;5028582;28;20214;-64
2024/03/28 02:37:51;;;;;;;13.73;10.00;;;10.50;99.90;;;;;;5029278;28;20203;-62
2024/03/28 02:40:16;;;;;;;11.90;10.20;;;10.50;99.90;;;;;;5028356;28;20180;-63
2024/03/28 02:42:42;;;;;;;14.00;11.70;;;10.50;99.90;;;;;;5026881;28;20203;-62
2024/03/28 02:45:08;;;;;;;12.73;10.63;;;10.50;99.90;;;;;;5028491;28;20211;-63
2024/03/28 02:47:33;;;;;;;12.90;10.83;;;10.40;99.90;;;;;;5029314;28;20223;-63
2024/03/28 02:49:59;;;;;;;11.73;10.03;;;10.50;99.90;;;;;;5028921;28;20465;-62
2024/03/28 02:52:25;;;;;;;10.23;9.33;;;10.40;99.90;;;;;;5028746;28;20230;-63
2024/03/28 02:54:51;;;;;;;11.73;10.53;;;10.40;99.90;;;;;;5028939;28;20209;-63
2024/03/28 02:57:24;;;;;;;16.17;10.87;;;10.30;99.90;;;;;;5027534;28;20438;-63
2024/03/28 02:59:49;;;;;;;14.90;10.53;;;10.30;99.90;;;;;;5025337;28;20184;-63
2024/03/28 03:02:15;;;;;;;13.13;10.20;;;10.20;99.90;;;;;;5027841;28;20540;-63
2024/03/28 03:04:41;;;;;;;11.50;10.30;;;10.20;99.90;;;;;;5028737;28;20280;-63
2024/03/28 03:07:06;;;;;;;15.53;11.63;;;10.20;99.90;;;;;;5029103;28;20190;-62
2024/03/28 03:09:32;;;;;;;16.10;10.77;;;10.20;99.90;;;;;;5028653;28;20188;-62
2024/03/28 03:11:58;;;;;;;11.60;10.47;;;10.20;99.90;;;;;;5028757;28;20263;-63
2024/03/28 03:14:23;;;;;;;11.10;9.90;;;10.20;99.90;;;;;;5028517;28;20422;-60
2024/03/28 03:16:49;;;;;;;11.23;10.00;;;10.10;99.90;;;;;;5023593;28;20186;-63
2024/03/28 03:19:16;;;;;;;12.80;11.33;;;10.10;99.90;;;;;;5028573;28;20195;-63
2024/03/28 03:21:43;;;;;;;14.33;10.77;;;10.10;99.90;;;;;;5028282;28;20190;-64
2024/03/28 03:24:12;;;;;;;16.47;12.73;;;10.10;99.90;;;;;;5027519;28;20891;-63
2024/03/28 03:26:38;;;;;;;11.87;10.67;;;10.00;99.90;;;;;;5028788;28;20422;-62
2024/03/28 03:34:35;;;;;;;13.00;10.57;;;10.00;99.90;;;;;;5028556;28;20911;-63
2024/03/28 03:37:08;;;;;;;11.50;10.40;;;10.00;99.90;;;;;;5028701;28;20418;-63
2024/03/28 03:39:35;;;;;;;14.57;11.87;;;10.00;99.90;;;;;;5028719;28;20432;-63
2024/03/28 03:42:00;;;;;;;10.83;9.83;;;10.00;99.90;;;;;;5028238;28;20544;-63
2024/03/28 03:44:26;;;;;;;16.83;11.90;;;10.00;99.90;;;;;;5024937;28;20620;-61
2024/03/28 03:46:51;;;;;;;12.27;10.90;;;10.00;99.90;;;;;;5028372;28;20646;-64
2024/03/28 03:49:17;;;;;;;13.70;11.80;;;10.10;99.90;;;;;;5028876;28;20211;-64
2024/03/28 03:51:42;;;;;;;11.43;10.23;;;10.10;99.90;;;;;;5028009;28;20180;-64
2024/03/28 03:54:08;;;;;;;13.27;10.47;;;10.10;99.90;;;;;;5027887;28;20662;-62
2024/03/28 03:56:34;;;;;;;12.33;9.87;;;10.10;99.90;;;;;;5028516;28;20207;-63
2024/03/28 03:59:01;;;;;;;10.93;9.83;;;10.10;99.90;;;;;;5028462;28;20422;-64
2024/03/28 04:01:27;;;;;;;12.17;10.80;;;10.20;99.90;;;;;;5024625;28;20497;-63
2024/03/28 04:03:53;;;;;;;13.33;10.60;;;10.20;99.90;;;;;;5020159;28;20465;-64
2024/03/28 04:06:18;;;;;;;13.27;11.37;;;10.20;99.90;;;;;;5028539;28;20183;-63
2024/03/28 04:08:44;;;;;;;12.73;11.43;;;10.20;99.90;;;;;;5028433;28;20180;-64
2024/03/28 04:11:09;;;;;;;11.90;10.70;;;10.30;99.90;;;;;;5032190;28;20191;-64
2024/03/28 04:13:35;;;;;;;13.90;10.73;;;10.30;99.90;;;;;;5031718;28;20286;-64
2024/03/28 04:16:01;;;;;;;14.70;11.87;;;10.30;99.90;;;;;;5032300;28;20669;-65
2024/03/28 04:18:26;;;;;;;15.63;10.20;;;10.40;99.90;;;;;;5030527;28;20188;-65
2024/03/28 04:20:52;;;;;;;13.23;11.73;;;10.40;99.90;;;;;;5031824;28;20180;-64
2024/03/28 04:23:18;;;;;;;12.60;10.93;;;10.40;99.90;;;;;;5031803;28;20709;-64
2024/03/28 04:25:43;;;;;;;11.80;10.07;;;10.40;99.90;;;;;;5031882;28;20180;-64
2024/03/28 04:28:09;;;;;;;11.70;10.67;;;10.40;99.90;;;;;;5031931;28;20179;-64
2024/03/28 04:30:38;;;;;;;13.57;11.87;;;10.40;99.90;;;;;;5030808;28;20211;-63
2024/03/28 04:33:04;;;;;;;14.57;11.63;;;10.40;99.90;;;;;;5030097;28;20278;-65
2024/03/28 04:35:30;;;;;;;14.60;11.83;;;10.40;99.90;;;;;;5032081;28;20445;-64
2024/03/28 04:37:55;;;;;;;15.20;12.50;;;10.30;99.90;;;;;;5032853;28;20321;-64
2024/03/28 04:40:21;;;;;;;14.20;12.70;;;10.40;99.90;;;;;;5031980;28;20223;-60
2024/03/28 04:42:50;;;;;;;20.90;13.17;;;10.30;99.90;;;;;;5031680;28;20311;-63
2024/03/28 04:45:19;;;;;;;16.60;12.23;;;10.30;99.90;;;;;;5029795;28;20212;-65
2024/03/28 04:47:49;;;;;;;13.67;12.37;;;10.30;99.90;;;;;;5031305;28;20422;-65
2024/03/28 04:50:15;;;;;;;16.77;13.37;;;10.30;99.90;;;;;;5031875;28;20456;-65
2024/03/28 04:52:41;;;;;;;18.03;13.00;;;10.20;99.90;;;;;;5031278;28;20500;-63
2024/03/28 04:55:07;;;;;;;14.30;12.70;;;10.20;99.90;;;;;;5031351;28;20426;-63
2024/03/28 04:57:34;;;;;;;16.50;13.23;;;10.20;99.90;;;;;;5031261;28;20253;-64
2024/03/28 05:00:00;;;;;;;17.53;15.20;;;10.20;99.90;;;;;;5031304;28;20479;-64
2024/03/28 05:02:25;;;;;;;17.10;14.10;;;10.10;99.90;;;;;;5029349;28;20477;-63
2024/03/28 05:04:51;;;;;;;14.20;12.80;;;10.10;99.90;;;;;;5026344;28;20454;-61
2024/03/28 05:07:19;;;;;;;18.17;14.50;;;10.10;99.90;;;;;;5031021;28;20200;-65
2024/03/28 05:09:47;;;;;;;16.33;12.97;;;10.10;99.90;;;;;;5030564;28;20453;-64
2024/03/28 05:12:13;;;;;;;13.93;12.53;;;10.20;99.90;;;;;;5031777;28;20909;-64
2024/03/28 05:14:39;;;;;;;19.87;13.87;;;10.20;99.90;;;;;;5031536;28;20451;-62
2024/03/28 05:17:06;;;;;;;15.37;13.70;;;10.10;99.90;;;;;;5030900;28;20441;-61
2024/03/28 05:19:31;;;;;;;16.30;14.20;;;10.10;99.90;;;;;;5030666;28;20418;-62
2024/03/28 05:21:57;;;;;;;17.73;13.53;;;10.10;99.90;;;;;;5030583;28;20468;-62
2024/03/28 05:24:23;;;;;;;15.47;13.87;;;10.10;99.90;;;;;;5029137;28;20219;-63
2024/03/28 05:26:49;;;;;;;16.20;14.00;;;10.00;99.90;;;;;;5030576;28;20184;-63
2024/03/28 05:29:14;;;;;;;15.97;13.57;;;10.00;99.90;;;;;;5031098;28;20771;-63
2024/03/28 05:31:40;;;;;;;18.70;15.13;;;10.00;99.90;;;;;;5030551;28;20591;-62
2024/03/28 05:34:06;;;;;;;16.97;13.83;;;9.90;99.90;;;;;;5030530;28;20240;-62
2024/03/28 05:36:32;;;;;;;21.83;16.60;;;9.80;99.90;;;;;;5030726;28;20338;-62
2024/03/28 05:38:57;;;;;;;21.53;16.93;;;9.70;99.90;;;;;;5021466;28;20915;-62
2024/03/28 05:41:23;;;;;;;19.97;15.50;;;9.70;99.90;;;;;;5030890;28;20187;-62
2024/03/28 05:43:48;;;;;;;19.63;14.70;;;9.70;99.90;;;;;;5030268;28;20306;-63
2024/03/28 05:46:14;;;;;;;20.30;16.90;;;9.70;99.90;;;;;;5030805;28;20531;-63
2024/03/28 05:48:39;;;;;;;20.30;15.93;;;9.60;99.90;;;;;;5030409;28;20191;-63
2024/03/28 05:51:05;;;;;;;21.93;18.20;;;9.60;99.90;;;;;;5030619;28;20179;-63
2024/03/28 05:53:31;;;;;;;24.33;18.50;;;9.60;99.90;;;;;;5030392;28;20546;-63
2024/03/28 05:55:56;;;;;;;23.93;19.13;;;9.60;99.90;;;;;;5028579;28;20258;-63
2024/03/28 05:58:22;;;;;;;25.07;18.83;;;9.50;99.90;;;;;;5030810;28;20190;-63
2024/03/28 06:00:47;;;;;;;23.33;18.40;;;9.60;99.90;;;;;;5030081;28;20283;-63
2024/03/28 06:03:13;;;;;;;26.60;21.30;;;9.50;99.90;;;;;;5026975;28;20237;-63
2024/03/28 06:05:38;;;;;;;26.57;22.60;;;9.50;99.90;;;;;;5029540;28;20217;-62
2024/03/28 06:08:04;;;;;;;27.87;20.97;;;9.50;99.90;;;;;;5030219;28;20188;-62
2024/03/28 06:10:30;;;;;;;29.00;22.23;;;9.50;99.90;;;;;;5036891;28;20194;-62
2024/03/28 06:12:55;;;;;;;30.40;22.53;;;9.40;99.90;;;;;;5029116;28;20526;-63
2024/03/28 06:15:21;;;;;;;29.70;23.43;;;9.50;99.90;;;;;;5029501;28;20253;-62
2024/03/28 06:17:47;;;;;;;28.37;21.80;;;9.40;99.90;;;;;;5029384;28;20262;-62
2024/03/28 06:20:12;;;;;;;26.63;22.87;;;9.40;99.90;;;;;;5028053;28;20206;-62
2024/03/28 06:22:38;;;;;;;35.70;21.97;;;9.50;99.90;;;;;;5029245;28;20207;-60
2024/03/28 06:25:05;;;;;;;29.77;21.03;;;9.50;99.90;;;;;;5029257;28;20302;-60
2024/03/28 06:27:31;;;;;;;26.97;22.10;;;9.50;99.90;;;;;;5029573;28;20646;-62
2024/03/28 06:29:57;;;;;;;28.00;22.07;;;9.50;99.90;;;;;;5030524;28;20469;-62
2024/03/28 06:32:25;;;;;;;27.30;21.37;;;9.50;99.90;;;;;;5030208;28;20525;-60
2024/03/28 06:34:52;;;;;;;29.17;22.80;;;9.50;99.90;;;;;;5029733;28;20214;-62
2024/03/28 06:37:18;;;;;;;24.67;19.57;;;9.50;99.90;;;;;;5028783;28;20457;-63
2024/03/28 06:39:45;;;;;;;19.10;17.00;;;9.50;99.90;;;;;;5029964;28;20474;-62
2024/03/28 06:42:10;;;;;;;14.57;12.67;;;9.40;99.90;;;;;;5030306;28;20450;-60
2024/03/28 06:44:36;;;;;;;15.73;11.73;;;9.40;99.90;;;;;;5031207;28;20472;-62
2024/03/28 06:47:02;;;;;;;7.93;6.50;;;9.30;99.90;;;;;;5029880;28;20532;-61
2024/03/28 06:49:28;;;;;;;5.60;4.50;;;9.10;99.90;;;;;;5026918;28;20348;-61
2024/03/28 06:51:53;;;;;;;6.27;4.70;;;9.00;99.90;;;;;;5029602;28;20897;-62
2024/03/28 06:54:20;;;;;;;5.53;5.00;;;9.00;99.90;;;;;;5027263;28;20183;-62
2024/03/28 06:56:46;;;;;;;4.00;3.60;;;9.00;99.90;;;;;;5028451;28;20195;-63
2024/03/28 06:59:13;;;;;;;3.80;3.50;;;8.90;99.90;;;;;;5029949;28;20433;-63
2024/03/28 07:01:41;;;;;;;3.17;2.83;;;8.90;99.90;;;;;;5003215;28;20538;-63
2024/03/28 07:04:08;;;;;;;5.33;3.27;;;8.90;99.90;;;;;;5026434;28;20493;-63
2024/03/28 07:06:33;;;;;;;2.40;2.20;;;8.80;99.90;;;;;;5029111;28;20436;-62
2024/03/28 07:08:59;;;;;;;2.60;2.40;;;8.70;99.90;;;;;;5028933;28;20426;-63
2024/03/28 07:11:25;;;;;;;1.73;1.63;;;8.70;99.90;;;;;;5029862;28;20182;-64
2024/03/28 07:13:51;;;;;;;2.87;2.53;;;8.60;99.90;;;;;;5028783;28;20649;-63
2024/03/28 07:16:17;;;;;;;3.07;2.03;;;8.70;99.90;;;;;;5029736;28;20595;-63
2024/03/28 07:18:44;;;;;;;2.67;2.13;;;8.70;99.90;;;;;;5028326;28;20814;-63
2024/03/28 07:21:10;;;;;;;2.33;2.13;;;8.70;99.90;;;;;;5029859;28;20430;-64
2024/03/28 07:23:36;;;;;;;2.53;2.33;;;8.80;99.90;;;;;;5029667;28;20791;-64
2024/03/28 07:26:02;;;;;;;3.13;2.17;;;8.80;99.90;;;;;;5029467;28;20175;-62
2024/03/28 07:28:28;;;;;;;3.40;2.80;;;8.80;99.90;;;;;;5029766;28;20491;-64
2024/03/28 07:30:54;;;;;;;3.80;2.53;;;8.80;99.90;;;;;;5027646;28;20424;-61
2024/03/28 07:33:19;;;;;;;2.90;2.60;;;8.80;99.90;;;;;;5027825;28;20712;-65
2024/03/28 07:35:45;;;;;;;3.40;2.30;;;8.80;99.90;;;;;;5028581;28;20277;-64
2024/03/28 07:38:11;;;;;;;3.13;2.83;;;8.90;99.90;;;;;;5029408;28;20562;-64
2024/03/28 07:40:37;;;;;;;2.17;2.03;;;8.90;99.90;;;;;;5029208;28;20414;-64
2024/03/28 07:43:03;;;;;;;3.40;2.13;;;8.80;99.90;;;;;;5029710;28;20444;-64
2024/03/28 07:45:29;;;;;;;3.10;2.87;;;8.70;99.90;;;;;;5032817;28;20315;-64
2024/03/28 07:47:54;;;;;;;3.50;3.20;;;8.70;99.90;;;;;;5031538;28;20179;-62
2024/03/28 07:50:20;;;;;;;3.33;3.00;;;8.70;99.90;;;;;;5033009;28;20270;-63
2024/03/28 07:52:46;;;;;;;3.50;3.20;;;8.60;99.90;;;;;;5031649;28;20206;-65
2024/03/28 07:55:13;;;;;;;2.67;2.47;;;8.60;99.90;;;;;;5032697;28;20762;-64
2024/03/28 07:57:40;;;;;;;3.07;2.83;;;8.80;99.90;;;;;;5033273;28;20433;-65
2024/03/28 08:00:06;;;;;;;3.87;3.17;;;8.80;99.90;;;;;;5033075;28;20837;-64
2024/03/28 08:02:32;;;;;;;3.13;2.90;;;8.80;99.90;;;;;;5028140;28;20557;-64
2024/03/28 08:04:59;;;;;;;3.47;3.17;;;8.80;99.90;;;;;;5028576;28;20461;-65
2024/03/28 08:07:25;;;;;;;2.93;2.70;;;8.80;99.90;;;;;;5031022;28;20441;-64
2024/03/28 08:09:50;;;;;;;3.83;3.40;;;8.80;99.90;;;;;;5030156;28;20912;-64
2024/03/28 08:12:18;;;;;;;3.83;3.53;;;8.80;99.90;;;;;;5032015;28;20231;-63
2024/03/28 08:14:44;;;;;;;3.17;2.80;;;8.80;99.90;;;;;;5032057;28;20214;-64
2024/03/28 08:17:09;;;;;;;4.00;3.13;;;8.80;99.90;;;;;;5032713;28;20516;-64
2024/03/28 08:19:35;;;;;;;3.60;3.30;;;8.90;99.90;;;;;;5032534;28;20582;-63
2024/03/28 08:22:00;;;;;;;5.67;3.00;;;8.90;99.90;;;;;;5032153;28;20204;-65
2024/03/28 08:24:30;;;;;;;4.03;3.60;;;8.90;99.90;;;;;;5032189;28;20212;-65
2024/03/28 08:26:56;;;;;;;3.83;3.50;;;9.00;99.90;;;;;;5032430;28;20218;-65
2024/03/28 08:29:22;;;;;;;2.73;2.50;;;8.80;99.90;;;;;;5031085;28;20594;-62
2024/03/28 08:31:48;;;;;;;3.60;3.30;;;8.80;99.90;;;;;;5032306;28;20183;-63
2024/03/28 08:34:13;;;;;;;3.53;3.23;;;8.80;99.90;;;;;;5032603;28;20202;-61
2024/03/28 08:36:39;;;;;;;3.03;2.83;;;8.90;99.90;;;;;;5032763;28;20183;-64
2024/03/28 08:39:05;;;;;;;2.77;2.57;;;8.90;99.90;;;;;;5032006;28;20741;-63
2024/03/28 08:41:32;;;;;;;3.07;2.87;;;9.00;99.90;;;;;;5032202;28;20191;-63
2024/03/28 08:43:57;;;;;;;2.53;2.33;;;9.00;99.90;;;;;;5029287;28;21077;-64
2024/03/28 08:46:24;;;;;;;3.40;3.10;;;9.10;99.90;;;;;;5026685;28;20529;-65
2024/03/28 08:48:49;;;;;;;3.03;2.83;;;9.20;99.90;;;;;;5030643;28;20182;-64
2024/03/28 08:51:20;;;;;;;2.70;2.50;;;9.30;99.90;;;;;;5030618;28;20904;-64
2024/03/28 08:53:46;;;;;;;2.47;2.30;;;9.30;99.90;;;;;;5030878;28;20213;-63
2024/03/28 08:56:13;;;;;;;2.87;2.50;;;9.30;99.90;;;;;;5032581;28;20420;-63
2024/03/28 08:58:39;;;;;;;2.80;2.60;;;9.30;99.90;;;;;;5029810;28;20461;-64
2024/03/28 09:01:05;;;;;;;3.13;2.30;;;9.20;99.90;;;;;;5030342;28;20947;-66
2024/03/28 09:03:30;;;;;;;2.60;2.50;;;9.00;99.90;;;;;;5029802;28;20222;-62
2024/03/28 09:05:56;;;;;;;2.67;2.47;;;9.00;99.90;;;;;;5029763;28;20230;-63
2024/03/28 09:08:22;;;;;;;3.50;2.60;;;9.10;99.90;;;;;;5030384;28;20199;-65
2024/03/28 09:10:55;;;;;;;2.73;2.50;;;9.00;99.90;;;;;;5030324;28;20801;-64
2024/03/28 09:13:21;;;;;;;3.20;3.00;;;9.10;99.90;;;;;;5031523;28;20196;-63
2024/03/28 09:15:47;;;;;;;2.33;2.23;;;9.20;99.90;;;;;;5032401;28;20517;-64
2024/03/28 09:18:12;;;;;;;2.27;2.17;;;9.20;99.90;;;;;;5029795;28;20570;-64
2024/03/28 09:20:38;;;;;;;2.40;2.20;;;9.10;99.90;;;;;;5030763;28;20432;-64
2024/03/28 09:23:04;;;;;;;2.40;2.20;;;9.10;99.90;;;;;;5026612;28;20215;-65
2024/03/28 09:25:29;;;;;;;1.87;1.77;;;9.00;99.90;;;;;;5031084;28;20211;-63
2024/03/28 09:27:55;;;;;;;1.77;1.67;;;8.90;99.90;;;;;;5013104;28;20438;-65
2024/03/28 09:30:23;;;;;;;1.87;1.70;;;9.00;99.90;;;;;;5030428;28;20183;-63
2024/03/28 09:32:50;;;;;;;2.00;1.67;;;9.20;99.90;;;;;;5029720;28;20276;-63
2024/03/28 09:35:15;;;;;;;1.80;1.70;;;9.40;99.90;;;;;;4996937;28;20429;-63
2024/03/28 09:37:41;;;;;;;1.83;1.73;;;9.60;99.90;;;;;;5029106;28;20422;-64
2024/03/28 09:40:08;;;;;;;1.80;1.70;;;9.90;99.90;;;;;;5025663;28;20679;-63
2024/03/28 09:42:36;;;;;;;3.03;1.70;;;10.20;99.90;;;;;;5030381;28;20442;-64
2024/03/28 09:45:05;;;;;;;2.30;1.77;;;10.10;99.90;;;;;;5030061;28;21006;-63
2024/03/28 09:47:32;;;;;;;1.30;1.20;;;10.20;99.90;;;;;;5027637;28;20445;-65
2024/03/28 09:49:59;;;;;;;1.20;1.10;;;10.30;99.90;;;;;;5027446;28;20427;-64
2024/03/28 09:52:28;;;;;;;1.53;1.43;;;10.40;99.90;;;;;;5012167;28;20801;-64
2024/03/28 09:54:54;;;;;;;2.03;1.20;;;10.50;99.90;;;;;;5027574;28;20426;-64
2024/03/28 09:57:20;;;;;;;1.00;1.00;;;10.60;99.90;;;;;;5012637;28;20438;-64
2024/03/28 09:59:46;;;;;;;0.80;0.80;;;10.60;99.90;;;;;;5030193;28;20505;-64
2024/03/28 10:02:17;;;;;;;2.50;1.10;;;10.70;99.90;;;;;;5027042;28;20218;-62
2024/03/28 10:04:48;;;;;;;0.90;0.90;;;10.70;99.90;;;;;;5030172;28;20546;-64
2024/03/28 10:07:16;;;;;;;0.70;0.70;;;11.10;99.90;;;;;;5019748;28;20422;-62
2024/03/28 10:09:44;;;;;;;1.17;1.00;;;11.40;99.90;;;;;;5010112;28;20426;-63
2024/03/28 10:12:14;;;;;;;1.30;0.97;;;11.30;99.90;;;;;;5029421;28;20434;-64
2024/03/28 10:14:42;;;;;;;1.80;1.07;;;11.50;99.90;;;;;;5010779;28;20477;-63
2024/03/28 10:17:10;;;;;;;1.20;0.80;;;11.30;99.90;;;;;;5030026;28;20469;-64
2024/03/28 10:19:39;;;;;;;1.60;0.90;;;11.60;99.90;;;;;;5030469;28;20426;-65
2024/03/28 10:22:12;;;;;;;0.73;0.73;;;11.70;99.90;;;;;;5029911;28;20553;-64
2024/03/28 10:24:38;;;;;;;0.70;0.70;;;11.40;99.90;;;;;;5012016;28;20561;-66
2024/03/28 10:27:19;;;;;;;1.23;1.13;;;11.50;99.90;;;;;;5029961;28;20445;-65
2024/03/28 10:29:54;;;;;;;2.20;0.73;;;11.60;99.90;;;;;;5029853;28;20422;-64
2024/03/28 10:32:21;;;;;;;0.83;0.70;;;11.60;99.90;;;;;;5021220;28;20450;-64
2024/03/28 10:34:48;;;;;;;0.83;0.77;;;11.90;99.90;;;;;;5030335;28;20783;-63
2024/03/28 10:37:20;;;;;;;0.90;0.90;;;12.10;99.90;;;;;;5029679;28;20429;-64
2024/03/28 10:39:46;;;;;;;1.67;0.90;;;12.20;99.90;;;;;;5029765;28;20481;-64
2024/03/28 10:42:16;;;;;;;1.00;0.90;;;12.40;99.90;;;;;;5029666;28;20945;-63
2024/03/28 10:44:46;;;;;;;1.07;0.97;;;12.40;99.90;;;;;;5029603;28;20546;-64
2024/03/28 10:47:13;;;;;;;1.77;0.70;;;12.80;99.90;;;;;;5029665;28;20988;-63
2024/03/28 10:50:06;;;;;;;0.70;0.70;;;12.70;99.90;;;;;;5026118;28;20499;-64
2024/03/28 10:52:40;;;;;;;0.97;0.80;;;12.80;99.90;;;;;;5029321;28;20476;-63
2024/03/28 10:55:07;;;;;;;0.97;0.80;;;12.90;99.90;;;;;;5006000;28;20918;-64
2024/03/28 10:57:34;;;;;;;1.67;0.60;;;13.10;99.90;;;;;;5029497;28;20573;-65
2024/03/28 10:59:59;;;;;;;0.60;0.60;;;13.40;99.90;;;;;;5029448;28;20418;-63
2024/03/28 11:02:28;;;;;;;2.50;0.93;;;13.50;99.90;;;;;;5029162;28;20453;-64
2024/03/28 11:04:54;;;;;;;1.13;0.87;;;13.10;99.90;;;;;;5028918;28;20590;-63
2024/03/28 11:07:25;;;;;;;1.47;1.20;;;13.30;99.90;;;;;;5029521;28;20502;-63
2024/03/28 11:09:54;;;;;;;1.00;0.90;;;13.00;99.90;;;;;;5029533;28;20493;-64
2024/03/28 11:12:20;;;;;;;2.33;1.70;;;13.50;99.90;;;;;;5027443;28;20539;-63
2024/03/28 11:14:56;;;;;;;1.77;1.10;;;13.60;99.90;;;;;;5029254;28;20920;-64
2024/03/28 11:17:22;;;;;;;1.37;0.90;;;13.70;99.90;;;;;;5022465;28;20519;-64
2024/03/28 11:20:03;;;;;;;0.70;0.70;;;13.80;99.90;;;;;;5032895;28;21060;-64
2024/03/28 11:22:31;;;;;;;1.27;0.87;;;14.30;99.90;;;;;;5033638;28;20203;-64
2024/03/28 11:24:57;;;;;;;6.57;1.23;;;14.60;99.90;;;;;;5033341;28;20554;-65
2024/03/28 11:27:23;;;;;;;1.10;0.97;;;14.50;99.90;;;;;;5032062;28;21065;-65
2024/03/28 11:30:04;;;;;;;2.20;1.00;;;14.60;99.90;;;;;;5033587;28;20525;-64
2024/03/28 11:32:29;;;;;;;2.47;1.10;;;14.30;99.90;;;;;;5033609;28;20441;-64
2024/03/28 11:35:09;;;;;;;1.50;1.00;;;14.30;99.90;;;;;;5034008;28;20447;-62
2024/03/28 11:37:35;;;;;;;1.10;1.00;;;14.30;99.90;;;;;;5033323;28;20259;-64
2024/03/28 11:40:00;;;;;;;1.07;0.97;;;14.30;99.90;;;;;;5033530;28;20418;-65
2024/03/28 11:42:26;;;;;;;2.90;1.40;;;14.20;99.90;;;;;;5031875;28;20236;-63
2024/03/28 11:45:01;;;;;;;1.20;1.07;;;14.10;99.90;;;;;;5033279;28;20212;-64
2024/03/28 11:47:27;;;;;;;3.27;2.47;;;14.00;99.90;;;;;;5033748;28;20199;-62
2024/03/28 11:50:03;;;;;;;1.40;1.27;;;14.00;99.90;;;;;;5032918;28;20838;-63
2024/03/28 11:52:30;;;;;;;1.93;1.20;;;13.90;99.90;;;;;;5032898;28;20200;-64
2024/03/28 11:54:56;;;;;;;1.50;1.40;;;14.10;99.90;;;;;;5029465;28;20500;-63
2024/03/28 11:57:22;;;;;;;1.70;1.60;;;14.10;99.90;;;;;;5032552;28;20440;-65
2024/03/28 11:59:47;;;;;;;1.90;1.33;;;14.20;99.90;;;;;;5032686;28;20510;-64
2024/03/28 12:02:13;;;;;;;1.50;1.33;;;14.20;99.90;;;;;;5032348;28;20217;-64
2024/03/28 12:04:39;;;;;;;3.37;1.80;;;14.20;99.90;;;;;;5032423;28;20248;-64
2024/03/28 12:07:05;;;;;;;1.70;1.60;;;14.10;99.90;;;;;;5032695;28;20189;-65
2024/03/28 12:09:31;;;;;;;2.20;1.60;;;14.40;99.90;;;;;;5032881;28;20264;-64
2024/03/28 12:12:05;;;;;;;2.13;1.60;;;14.60;99.90;;;;;;5030689;28;20478;-65
2024/03/28 12:14:31;;;;;;;2.23;2.03;;;14.60;99.90;;;;;;5032552;28;20910;-65
2024/03/28 12:16:57;;;;;;;2.60;1.90;;;14.40;99.80;;;;;;5032555;28;20639;-65
2024/03/28 12:19:26;;;;;;;5.07;1.70;;;14.50;99.10;;;;;;5032706;28;20248;-64
2024/03/28 12:21:52;;;;;;;2.10;1.90;;;14.40;99.90;;;;;;5032526;28;20438;-63
2024/03/28 12:24:18;;;;;;;2.20;2.10;;;14.60;99.50;;;;;;5031953;28;20545;-65
2024/03/28 12:26:44;;;;;;;5.63;2.40;;;14.80;99.20;;;;;;5032694;28;20800;-65
2024/03/28 12:29:10;;;;;;;2.50;2.30;;;15.00;99.00;;;;;;5030152;28;20182;-64
2024/03/28 12:31:35;;;;;;;2.43;2.27;;;15.10;98.40;;;;;;5031333;28;21160;-64
2024/03/28 12:34:13;;;;;;;3.10;2.40;;;15.10;98.10;;;;;;5031858;28;20632;-64
2024/03/28 12:36:39;;;;;;;1.83;1.67;;;15.00;98.00;;;;;;5032184;28;20192;-64
2024/03/28 12:39:06;;;;;;;4.27;2.07;;;15.00;97.90;;;;;;5031771;28;20786;-64
2024/03/28 12:41:32;;;;;;;2.37;1.97;;;15.00;98.00;;;;;;5032002;28;20441;-64
2024/03/28 12:44:00;;;;;;;3.30;2.07;;;14.90;98.10;;;;;;5029932;28;20501;-64
2024/03/28 12:46:27;;;;;;;2.23;1.80;;;14.90;97.40;;;;;;5031815;28;20184;-64